createdAt,value
2022-08-05T00:01:36.168Z,39.96
2022-08-05T00:04:18.062Z,39.63
2022-08-05T00:06:51.635Z,39.79
2022-08-05T00:09:20.438Z,40.11
2022-08-05T00:11:55.773Z,40.85
2022-08-05T00:14:27.689Z,39.85
2022-08-05T00:16:57.967Z,39.94
2022-08-05T00:19:40.620Z,41.40
2022-08-05T00:22:12.427Z,40.81
2022-08-05T00:24:42.154Z,40.80
2022-08-05T00:27:16.581Z,40.14
2022-08-05T00:29:45.686Z,40.77
2022-08-05T00:32:15.436Z,39.81
2022-08-05T00:35:04.416Z,39.39
2022-08-05T00:37:50.670Z,39.97
2022-08-05T00:40:27.526Z,40.55
2022-08-05T00:43:00.252Z,40.60
2022-08-05T00:45:42.988Z,41.13
2022-08-05T00:48:27.523Z,40.05
2022-08-05T00:50:59.829Z,40.46
2022-08-05T00:54:01.402Z,40.36
2022-08-05T00:56:25.470Z,39.66
2022-08-05T00:58:53.702Z,39.63
2022-08-05T01:01:24.963Z,40.56
2022-08-05T01:04:13.565Z,40.06
2022-08-05T01:06:43.885Z,39.84
2022-08-05T01:09:17.394Z,39.73
2022-08-05T01:11:52.062Z,40.21
2022-08-05T01:14:36.586Z,44.18
2022-08-05T01:17:28.995Z,43.65
2022-08-05T01:20:25.006Z,43.25
2022-08-05T01:23:22.898Z,42.49
2022-08-05T01:26:27.364Z,42.62
2022-08-05T01:29:05.583Z,41.50
2022-08-05T01:31:49.855Z,42.51
2022-08-05T01:34:36.531Z,41.96
2022-08-05T01:37:24.657Z,42.30
2022-08-05T01:39:58.941Z,43.63
2022-08-05T01:42:30.049Z,42.11
2022-08-05T01:45:02.306Z,43.14
2022-08-05T01:47:39.434Z,43.00
2022-08-05T01:50:15.979Z,42.63
2022-08-05T01:52:49.881Z,43.72
2022-08-05T01:55:23.822Z,44.35
2022-08-05T01:58:11.543Z,44.26
2022-08-05T02:00:52.142Z,44.57
2022-08-05T02:03:39.882Z,43.48
2022-08-05T02:06:33.360Z,44.42
2022-08-05T02:08:59.374Z,45.23
2022-08-05T02:11:48.104Z,45.11
2022-08-05T02:14:53.432Z,43.48
2022-08-05T02:18:32.358Z,44.84
2022-08-05T02:20:31.847Z,44.23
2022-08-05T02:23:12.012Z,43.47
2022-08-05T02:25:49.699Z,45.21
2022-08-05T02:28:29.387Z,45.63
2022-08-05T02:31:26.752Z,44.57
2022-08-05T02:34:11.917Z,45.75
2022-08-05T02:36:48.419Z,45.07
2022-08-05T02:39:23.268Z,44.45
2022-08-05T02:42:00.634Z,44.35
2022-08-05T02:44:34.497Z,45.43
2022-08-05T02:47:08.993Z,45.19
2022-08-05T02:49:42.375Z,45.35
2022-08-05T02:52:29.713Z,46.17
2022-08-05T02:55:05.653Z,46.99
2022-08-05T02:58:10.545Z,46.20
2022-08-05T03:00:30.660Z,46.92
2022-08-05T03:03:02.277Z,46.89
2022-08-05T03:06:56.885Z,46.81
2022-08-05T03:08:29.644Z,47.19
2022-08-05T03:11:53.698Z,46.92
2022-08-05T03:13:52.112Z,47.69
2022-08-05T03:16:31.788Z,47.16
2022-08-05T03:19:01.475Z,47.36
2022-08-05T03:21:48.437Z,48.21
2022-08-05T03:24:29.481Z,48.01
2022-08-05T03:27:01.675Z,48.14
2022-08-05T03:29:45.919Z,48.67
2022-08-05T03:32:19.938Z,47.92
2022-08-05T03:34:51.266Z,47.66
2022-08-05T03:37:21.408Z,48.28
2022-08-05T03:40:01.933Z,47.19
2022-08-05T03:42:41.594Z,47.16
2022-08-05T03:45:21.636Z,47.35
2022-08-05T03:47:51.837Z,48.33
2022-08-05T03:50:43.679Z,48.88
2022-08-05T03:55:34.207Z,53.22
2022-08-05T03:56:38.352Z,50.70
2022-08-05T03:59:47.109Z,49.89
2022-08-05T04:02:38.888Z,51.41
2022-08-05T04:05:17.008Z,51.51
2022-08-05T04:07:58.161Z,55.37
2022-08-05T04:10:32.074Z,56.02
2022-08-05T04:16:14.271Z,56.85
2022-08-05T04:18:47.605Z,56.65
2022-08-05T04:22:08.862Z,55.43
2022-08-05T04:24:19.442Z,53.23
2022-08-05T04:26:51.322Z,52.72
2022-08-05T04:29:19.801Z,54.62
2022-08-05T04:31:48.345Z,56.65
2022-08-05T04:34:31.369Z,54.03
2022-08-05T04:37:03.993Z,53.56
2022-08-05T04:39:35.260Z,51.92
2022-08-05T04:42:04.385Z,52.15
2022-08-05T04:44:32.630Z,51.27
2022-08-05T04:47:09.138Z,51.55
2022-08-05T04:50:02.468Z,51.69
2022-08-05T04:52:33.405Z,57.09
2022-08-05T04:55:13.951Z,56.75
2022-08-05T04:57:47.750Z,55.22
2022-08-05T05:00:16.751Z,57.35
2022-08-05T05:02:45.128Z,55.85
2022-08-05T05:05:16.946Z,55.99
2022-08-05T05:08:01.720Z,57.01
2022-08-05T05:10:33.228Z,57.46
2022-08-05T05:13:04.113Z,56.38
2022-08-05T05:15:56.891Z,54.67
2022-08-05T05:18:31.384Z,54.84
2022-08-05T05:21:03.940Z,54.96
2022-08-05T05:23:39.537Z,56.40
2022-08-05T05:26:28.665Z,54.43
2022-08-05T05:29:02.358Z,53.54
2022-08-05T05:34:02.510Z,57.09
2022-08-05T05:36:31.950Z,58.40
2022-08-05T05:39:00.395Z,58.03
2022-08-05T05:41:40.459Z,57.53
2022-08-05T05:44:36.105Z,58.69
2022-08-05T05:47:04.430Z,57.01
2022-08-05T05:49:41.619Z,57.14
2022-08-05T05:52:12.103Z,57.45
2022-08-05T05:54:54.751Z,57.04
2022-08-05T05:57:23.012Z,58.51
2022-08-05T05:59:51.279Z,58.50
2022-08-05T06:02:32.318Z,58.93
2022-08-05T06:05:16.439Z,58.61
2022-08-05T06:08:01.272Z,57.25
2022-08-05T06:10:34.516Z,57.73
2022-08-05T06:13:05.399Z,57.77
2022-08-05T06:16:28.396Z,58.36
2022-08-05T06:18:31.159Z,59.42
2022-08-05T06:21:00.627Z,58.71
2022-08-05T06:23:32.090Z,58.37
2022-08-05T06:26:20.834Z,57.54
2022-08-05T06:28:49.998Z,57.74
2022-08-05T06:31:21.713Z,57.55
2022-08-05T06:34:07.569Z,57.47
2022-08-05T06:36:56.882Z,57.30
2022-08-05T06:39:27.102Z,57.54
2022-08-05T06:42:04.041Z,57.09
2022-08-05T06:44:32.893Z,57.55
2022-08-05T06:47:02.403Z,56.64
2022-08-05T06:50:01.899Z,56.98
2022-08-05T06:52:37.982Z,57.13
2022-08-05T06:55:08.574Z,58.63
2022-08-05T06:57:57.738Z,57.18
2022-08-05T07:00:25.506Z,58.14
2022-08-05T07:02:54.321Z,55.89
2022-08-05T07:05:36.844Z,55.33
2022-08-05T07:08:10.944Z,54.25
2022-08-05T07:10:52.379Z,53.72
2022-08-05T07:13:58.014Z,54.24
2022-08-05T07:18:00.997Z,54.17
2022-08-05T07:22:28.832Z,55.30
2022-08-05T07:25:09.441Z,55.96
2022-08-05T07:27:58.271Z,55.24
2022-08-05T07:30:38.945Z,53.49
2022-08-05T07:33:16.607Z,53.06
2022-08-05T07:36:03.388Z,54.07
2022-08-05T07:38:42.875Z,53.63
2022-08-05T07:42:07.780Z,52.35
2022-08-05T07:44:14.149Z,53.75
2022-08-05T07:46:49.803Z,53.18
2022-08-05T07:49:20.523Z,54.22
2022-08-05T07:51:54.243Z,53.44
2022-08-05T07:54:31.486Z,53.13
2022-08-05T07:57:18.113Z,52.91
2022-08-05T07:59:51.923Z,52.64
2022-08-05T08:02:30.822Z,52.72
2022-08-05T08:05:17.488Z,52.11
2022-08-05T08:07:59.167Z,52.19
2022-08-05T08:10:30.252Z,51.97
2022-08-05T08:12:58.867Z,52.77
2022-08-05T08:15:37.366Z,53.11
2022-08-05T08:18:15.653Z,51.97
2022-08-05T08:21:02.225Z,53.20
2022-08-05T08:24:02.637Z,51.90
2022-08-05T08:26:26.840Z,52.74
2022-08-05T08:29:21.597Z,51.83
2022-08-05T08:31:50.773Z,51.25
2022-08-05T08:34:30.221Z,52.43
2022-08-05T08:37:04.866Z,52.21
2022-08-05T08:39:37.549Z,52.02
2022-08-05T08:42:33.980Z,52.70
2022-08-05T08:45:20.620Z,52.38
2022-08-05T08:48:10.547Z,51.68
2022-08-05T08:51:03.650Z,52.31
2022-08-05T08:53:45.262Z,53.00
2022-08-05T08:56:13.878Z,53.77
2022-08-05T08:58:44.704Z,56.70
2022-08-05T09:01:18.767Z,58.33
2022-08-05T09:03:54.530Z,59.13
2022-08-05T09:06:30.384Z,57.72
2022-08-05T09:09:01.889Z,56.19
2022-08-05T09:11:52.686Z,56.95
2022-08-05T09:14:56.727Z,57.27
2022-08-05T09:17:40.199Z,55.77
2022-08-05T09:20:05.923Z,55.48
2022-08-05T09:23:19.072Z,55.38
2022-08-05T09:26:02.278Z,56.64
2022-08-05T09:28:35.185Z,56.83
2022-08-05T09:31:22.068Z,57.27
2022-08-05T09:34:01.609Z,57.12
2022-08-05T09:36:56.185Z,56.76
2022-08-05T09:39:41.785Z,57.02
2022-08-05T09:42:24.131Z,55.96
2022-08-05T09:45:17.222Z,55.32
2022-08-05T09:47:55.640Z,54.99
2022-08-05T09:50:43.769Z,56.36
2022-08-05T09:53:23.113Z,56.17
2022-08-05T09:56:04.583Z,56.55
2022-08-05T09:58:33.292Z,57.03
2022-08-05T10:01:14.750Z,58.07
2022-08-05T10:04:10.680Z,57.41
2022-08-05T10:06:49.778Z,58.15
2022-08-05T10:09:29.495Z,57.17
2022-08-05T10:12:18.554Z,57.58
2022-08-05T10:15:25.971Z,56.58
2022-08-05T10:18:19.880Z,56.40
2022-08-05T10:21:16.424Z,58.17
2022-08-05T10:23:59.543Z,59.24
2022-08-05T10:26:31.715Z,59.50
2022-08-05T10:29:02.740Z,60.34
2022-08-05T10:32:52.513Z,61.10
2022-08-05T10:34:25.599Z,59.80
2022-08-05T10:36:58.997Z,58.97
2022-08-05T10:40:04.134Z,58.78
2022-08-05T10:42:33.557Z,63.28
2022-08-05T10:45:21.270Z,61.38
2022-08-05T10:48:29.731Z,61.52
2022-08-05T10:51:05.777Z,62.81
2022-08-05T10:53:50.615Z,59.27
2022-08-05T10:56:26.077Z,59.13
2022-08-05T10:58:54.614Z,63.28
2022-08-05T11:01:54.560Z,61.22
2022-08-05T11:04:27.629Z,59.81
2022-08-05T11:07:04.454Z,61.29
2022-08-05T11:09:47.218Z,65.09
2022-08-05T11:12:24.860Z,66.73
2022-08-05T11:16:01.332Z,64.96
2022-08-05T11:18:34.097Z,64.29
2022-08-05T11:21:11.769Z,67.20
2022-08-05T11:24:04.559Z,69.15
2022-08-05T11:26:35.100Z,62.50
2022-08-05T11:29:13.045Z,64.41
2022-08-05T11:31:58.123Z,61.27
2022-08-05T11:34:50.900Z,58.06
2022-08-05T11:38:31.027Z,55.57
2022-08-05T11:41:35.104Z,57.33
2022-08-05T11:44:06.293Z,57.93
2022-08-05T11:47:09.345Z,58.53
2022-08-05T11:49:42.818Z,59.19
2022-08-05T11:52:12.170Z,56.90
2022-08-05T11:54:43.448Z,55.07
2022-08-05T11:57:25.989Z,58.07
2022-08-05T11:59:55.936Z,58.07
2022-08-05T12:02:32.934Z,55.80
2022-08-05T12:05:07.146Z,53.37
2022-08-05T12:08:08.779Z,56.28
2022-08-05T12:10:42.883Z,55.47
2022-08-05T12:13:28.091Z,53.44
2022-08-05T12:16:14.615Z,52.64
2022-08-05T12:18:49.086Z,50.51
2022-08-05T12:21:50.007Z,51.73
2022-08-05T12:24:22.471Z,50.46
2022-08-05T12:26:54.286Z,49.40
2022-08-05T12:29:25.957Z,48.35
2022-08-05T12:32:01.810Z,47.66
2022-08-05T12:34:35.808Z,48.38
2022-08-05T12:37:17.242Z,49.36
2022-08-05T12:39:53.990Z,51.02
2022-08-05T12:42:25.356Z,49.59
2022-08-05T12:45:09.469Z,49.82
2022-08-05T12:48:01.050Z,49.57
2022-08-05T12:50:27.819Z,47.72
2022-08-05T12:53:02.423Z,47.72
2022-08-05T12:55:32.935Z,46.48
2022-08-05T12:58:51.349Z,44.45
2022-08-05T13:02:02.672Z,46.97
2022-08-05T13:03:42.289Z,45.30
2022-08-05T13:06:19.850Z,43.83
2022-08-05T13:08:51.597Z,46.77
2022-08-05T13:11:57.884Z,45.18
2022-08-05T13:14:19.991Z,44.12
2022-08-05T13:16:56.846Z,45.97
2022-08-05T13:19:51.124Z,43.99
2022-08-05T13:22:27.992Z,43.01
2022-08-05T13:25:18.888Z,40.69
2022-08-05T13:27:54.195Z,40.13
2022-08-05T13:30:35.221Z,43.00
2022-08-05T13:33:07.596Z,42.96
2022-08-05T13:35:50.438Z,44.42
2022-08-05T13:38:31.129Z,44.58
2022-08-05T13:41:06.523Z,44.27
2022-08-05T13:43:45.722Z,43.06
2022-08-05T13:46:50.655Z,44.53
2022-08-05T13:49:12.862Z,44.49
2022-08-05T13:51:46.120Z,43.37
2022-08-05T13:54:21.261Z,43.36
2022-08-05T13:56:53.963Z,45.71
2022-08-05T13:59:27.545Z,47.42
2022-08-05T14:02:00.943Z,46.31
2022-08-05T14:04:55.885Z,46.54
2022-08-05T14:08:00.952Z,46.84
2022-08-05T14:10:37.351Z,46.60
2022-08-05T14:13:07.826Z,47.37
2022-08-05T14:16:08.237Z,45.14
2022-08-05T14:18:24.518Z,43.99
2022-08-05T14:20:54.725Z,45.97
2022-08-05T14:23:26.285Z,45.54
2022-08-05T14:25:57.956Z,46.59
2022-08-05T14:28:31.059Z,46.68
2022-08-05T14:31:01.422Z,47.11
2022-08-05T14:33:32.632Z,47.07
2022-08-05T14:36:21.642Z,48.31
2022-08-05T14:38:51.437Z,48.72
2022-08-05T14:41:20.139Z,49.32
2022-08-05T14:43:59.084Z,49.08
2022-08-05T14:46:31.475Z,47.81
2022-08-05T14:49:07.369Z,48.09
2022-08-05T14:51:42.673Z,48.35
2022-08-05T14:54:29.889Z,48.45
2022-08-05T14:57:00.671Z,48.05
2022-08-05T14:59:35.621Z,47.46
2022-08-05T15:02:15.777Z,47.96
2022-08-05T15:04:45.035Z,47.54
2022-08-05T15:08:08.817Z,49.00
2022-08-05T15:10:09.943Z,48.39
2022-08-05T15:12:59.889Z,48.03
2022-08-05T15:15:54.943Z,48.13
2022-08-05T15:18:17.305Z,49.14
2022-08-05T15:20:46.181Z,49.83
2022-08-05T15:23:14.673Z,49.72
2022-08-05T15:25:52.812Z,51.10
2022-08-05T15:28:27.719Z,50.76
2022-08-05T15:30:57.046Z,51.19
2022-08-05T15:34:05.812Z,52.46
2022-08-05T15:36:17.820Z,52.97
2022-08-05T15:40:41.001Z,53.39
2022-08-05T15:41:56.299Z,53.84
2022-08-05T15:44:30.851Z,53.26
2022-08-05T15:47:01.847Z,54.67
2022-08-05T15:49:53.570Z,55.51
2022-08-05T15:52:29.244Z,55.75
2022-08-05T15:55:16.239Z,56.05
2022-08-05T15:57:46.040Z,57.20
2022-08-05T16:00:26.025Z,57.50
2022-08-05T16:02:59.127Z,57.73
2022-08-05T16:05:28.194Z,59.45
2022-08-05T16:07:57.172Z,58.79
2022-08-05T16:10:26.893Z,59.01
2022-08-05T16:12:56.006Z,58.50
2022-08-05T16:15:24.548Z,59.94
2022-08-05T16:18:00.822Z,59.94
2022-08-05T16:20:32.755Z,60.69
2022-08-05T16:23:01.141Z,61.57
2022-08-05T16:25:32.320Z,61.81
2022-08-05T16:28:09.830Z,61.88
2022-08-05T16:30:38.731Z,61.90
2022-08-05T16:33:07.038Z,61.52
2022-08-05T16:35:42.169Z,61.80
2022-08-05T16:38:24.555Z,62.21
2022-08-05T16:41:00.136Z,62.44
2022-08-05T16:43:33.111Z,61.97
2022-08-05T16:46:23.752Z,62.10
2022-08-05T16:48:52.928Z,62.02
2022-08-05T16:51:21.550Z,61.29
2022-08-05T16:54:05.992Z,62.27
2022-08-05T16:56:41.769Z,62.31
2022-08-05T16:59:11.882Z,63.32
2022-08-05T17:01:53.576Z,62.70
2022-08-05T17:04:27.365Z,63.26
2022-08-05T17:07:03.628Z,64.68
2022-08-05T17:09:58.351Z,63.80
2022-08-05T17:12:51.598Z,63.11
2022-08-05T17:15:19.462Z,64.11
2022-08-05T17:17:55.242Z,65.20
2022-08-05T17:20:25.112Z,65.82
2022-08-05T17:22:55.388Z,66.09
2022-08-05T17:25:39.366Z,67.74
2022-08-05T17:28:09.105Z,68.14
2022-08-05T17:30:50.641Z,67.59
2022-08-05T17:33:20.808Z,68.34
2022-08-05T17:36:07.374Z,67.69
2022-08-05T17:38:37.424Z,69.52
2022-08-05T17:41:11.592Z,68.78
2022-08-05T17:43:57.278Z,69.00
2022-08-05T17:46:26.106Z,69.59
2022-08-05T17:48:55.362Z,69.76
2022-08-05T17:51:24.047Z,68.71
2022-08-05T17:53:54.961Z,68.39
2022-08-05T17:56:23.248Z,68.55
2022-08-05T17:58:56.723Z,68.19
2022-08-05T18:01:25.504Z,68.54
2022-08-05T18:04:04.133Z,67.29
2022-08-05T18:06:33.893Z,68.54
2022-08-05T18:09:03.652Z,67.06
2022-08-05T18:11:33.132Z,69.13
2022-08-05T18:14:04.570Z,67.35
2022-08-05T18:16:50.943Z,67.54
2022-08-05T18:19:23.204Z,67.13
2022-08-05T18:22:08.674Z,68.02
2022-08-05T18:24:39.983Z,67.43
2022-08-05T18:27:12.932Z,68.34
2022-08-05T18:29:54.163Z,67.06
2022-08-05T18:32:28.055Z,68.17
2022-08-05T18:34:58.093Z,67.45
2022-08-05T18:37:34.198Z,66.41
2022-08-05T18:40:34.364Z,64.63
2022-08-05T18:42:58.684Z,66.11
2022-08-05T18:45:41.722Z,66.65
2022-08-05T18:48:11.051Z,67.19
2022-08-05T18:51:01.714Z,68.49
2022-08-05T18:53:50.278Z,69.04
2022-08-05T18:56:21.650Z,67.58
2022-08-05T18:58:59.811Z,71.55
2022-08-05T19:01:47.751Z,72.30
2022-08-05T19:04:24.296Z,71.81
2022-08-05T19:06:53.650Z,74.25
2022-08-05T19:09:22.668Z,73.71
2022-08-05T19:12:00.262Z,71.61
2022-08-05T19:14:53.329Z,72.12
2022-08-05T19:17:19.700Z,73.30
2022-08-05T19:19:50.382Z,73.36
2022-08-05T19:22:18.802Z,71.28
2022-08-05T19:24:56.144Z,68.37
2022-08-05T19:27:27.918Z,66.00
2022-08-05T19:29:58.853Z,65.01
2022-08-05T19:32:27.841Z,65.81
2022-08-05T19:34:57.749Z,66.67
2022-08-05T19:37:29.853Z,65.35
2022-08-05T19:40:07.966Z,65.09
2022-08-05T19:42:38.732Z,64.12
2022-08-05T19:45:08.327Z,63.46
2022-08-05T19:47:42.769Z,62.85
2022-08-05T19:50:12.157Z,61.91
2022-08-05T19:52:40.996Z,62.34
2022-08-05T19:56:14.416Z,61.95
2022-08-05T19:58:19.498Z,61.47
2022-08-05T20:00:47.650Z,61.03
2022-08-05T20:03:15.997Z,60.17
2022-08-05T20:05:51.441Z,61.08
2022-08-05T20:08:20.779Z,59.58
2022-08-05T20:10:54.096Z,60.00
2022-08-05T20:13:55.051Z,59.21
2022-08-05T20:16:10.713Z,58.72
2022-08-05T20:18:39.283Z,58.48
2022-08-05T20:21:08.821Z,58.94
2022-08-05T20:23:51.112Z,57.87
2022-08-05T20:26:26.588Z,58.01
2022-08-05T20:28:57.854Z,59.04
2022-08-05T20:31:43.022Z,58.41
2022-08-05T20:34:17.839Z,58.97
2022-08-05T20:36:46.055Z,58.12
2022-08-05T20:39:16.363Z,58.27
2022-08-05T20:41:47.983Z,58.12
2022-08-05T20:44:30.529Z,58.13
2022-08-05T20:47:02.249Z,58.76
2022-08-05T20:49:37.798Z,58.66
2022-08-05T20:52:12.226Z,59.08
2022-08-05T20:54:55.564Z,57.89
2022-08-05T20:57:43.476Z,58.00
2022-08-05T21:00:35.004Z,58.64
2022-08-05T21:03:08.104Z,59.81
2022-08-05T21:05:53.829Z,61.18
2022-08-05T21:08:26.453Z,61.09
2022-08-05T21:10:58.318Z,61.57
2022-08-05T21:13:47.152Z,61.28
2022-08-05T21:16:20.685Z,61.43
2022-08-05T21:18:51.442Z,63.57
2022-08-05T21:21:20.025Z,64.14
2022-08-05T21:23:52.809Z,63.67
2022-08-05T21:26:21.505Z,63.52
2022-08-05T21:28:55.592Z,64.67
2022-08-05T21:31:41.395Z,64.01
2022-08-05T21:34:10.637Z,65.30
2022-08-05T21:36:39.532Z,65.76
2022-08-05T21:39:14.323Z,65.36
2022-08-05T21:41:52.356Z,66.68
2022-08-05T21:44:26.856Z,66.47
2022-08-05T21:46:55.710Z,67.59
2022-08-05T21:49:48.518Z,68.03
2022-08-05T21:52:26.928Z,67.71
2022-08-05T21:55:06.542Z,69.58
2022-08-05T21:57:36.402Z,69.18
2022-08-05T22:00:12.886Z,68.61
2022-08-05T22:02:42.573Z,69.74
2022-08-05T22:05:12.975Z,68.25
2022-08-05T22:07:58.978Z,68.25
2022-08-05T22:10:31.058Z,69.26
2022-08-05T22:13:08.925Z,69.17
2022-08-05T22:16:00.887Z,69.92
2022-08-05T22:18:30.326Z,69.66
2022-08-05T22:21:00.247Z,69.21
2022-08-05T22:24:01.815Z,70.37
2022-08-05T22:26:50.564Z,69.87
2022-08-05T22:29:26.517Z,69.55
2022-08-05T22:31:59.604Z,70.10
2022-08-05T22:34:33.303Z,69.26
2022-08-05T22:37:03.916Z,68.55
2022-08-05T22:39:34.691Z,68.38
2022-08-05T22:42:12.715Z,68.45
2022-08-05T22:44:48.618Z,69.46
2022-08-05T22:47:29.580Z,68.69
2022-08-05T22:50:21.600Z,68.75
2022-08-05T22:52:52.611Z,68.56
2022-08-05T22:55:23.216Z,68.68
2022-08-05T22:57:53.264Z,69.87
2022-08-05T23:00:23.259Z,69.74
2022-08-05T23:02:53.663Z,69.52
2022-08-05T23:05:25.718Z,69.60
2022-08-05T23:07:55.091Z,69.29
2022-08-05T23:10:24.358Z,68.79
2022-08-05T23:12:55.746Z,68.59
2022-08-05T23:15:35.422Z,68.53
2022-08-05T23:18:06.184Z,68.90
2022-08-05T23:20:44.104Z,67.59
2022-08-05T23:23:12.309Z,67.72
2022-08-05T23:25:52.763Z,68.73
2022-08-05T23:28:29.078Z,68.51
2022-08-05T23:31:16.339Z,68.52
2022-08-05T23:34:04.853Z,66.01
2022-08-05T23:36:38.773Z,64.82
2022-08-05T23:39:09.893Z,61.64
2022-08-05T23:41:48.580Z,61.78
2022-08-05T23:44:19.831Z,62.84
2022-08-05T23:46:53.280Z,63.45
2022-08-05T23:49:35.711Z,64.07
2022-08-05T23:52:25.265Z,64.87
2022-08-05T23:54:54.270Z,65.24
2022-08-05T23:57:24.193Z,64.86
